Main page
METAR-TAF:

METAR-TAF

Airports :

Treviso, Italy

Istrana Air Base

latitude: 45-41N, longitude: 012-06E, elevation: 45 m

Current weather observation

The report was made 36 minutes ago, at 21:55 UTC
Wind 5 kt from the East/Northeast
Temperature 20°C
Humidity 100%
Pressure 1016 hPa
Visibility: 8000 m

METAR: LIPS 232155Z 07005KT 8000 NSC 20/20 Q1016 RMK SKC VIS MIN 8000 WIND THR26 06003KT WIND THR08 05004KT BLU

Time: 00:31 (22:31 UTC)

Forecast

The report was made 2 hours and 31 minutes ago, at 20:00 UTC
Forecast valid from 23 at 21 UTC to 24 at 06 UTC
Wind 5 kt from the East
Visibility 10 km or more
Scattered clouds at a height of 10000 ft
Probability 30% :
Temporary
from 23 at 21 UTC to 24 at 02 UTC
Visibility: 4000 m
Few clouds at a height of 3000 ft, Cumulonimbus.
Scattered clouds at a height of 5000 ft
thunderstorm, rain

TAF: LIPS 232000Z 2321/2406 10005KT 9999 SCT100 PROB30 TEMPO 2321/2402 4000 TSRA FEW030CB SCT050

Weather observations and forecasts of more than 4000 airports (METAR and TAF reports).

The available stations are represented by yellow and red dots on the map.

Hover mouse over dot to see the name of the station.

Then click to see weather observations and forecasts.

To change the map : click on the green buttons with a black cross to zoom in, on the green button with a dash to zoom out, or on the green arrows for adjacent maps.


METAR-TAF: